Time;durP1;ratioP1;P1;durP2;ratioP2;P2;SDS_P1;SDS_P2;PMS_P1;PMS_P2;Temp;Humidity;BMP_temperature;BMP_pressure;BME280_temperature;BME280_humidity;BME280_pressure;Samples;Min_cycle;Max_cycle;Signal;HPM_P1;HPM_P2
2023/08/31 00:01:48;;;;;;;5.65;2.00;;;16.50;99.90;;;;;;5025578;28;20062;-83
2023/08/31 00:04:17;;;;;;;6.60;2.30;;;16.50;99.90;;;;;;5019199;28;20025;-85
2023/08/31 00:06:44;;;;;;;6.97;2.17;;;16.50;99.90;;;;;;5023088;28;20045;-85
2023/08/31 00:09:10;;;;;;;8.25;2.08;;;16.50;99.90;;;;;;5028516;28;20107;-85
2023/08/31 00:11:36;;;;;;;6.18;1.95;;;16.50;99.90;;;;;;5025234;28;20429;-85
2023/08/31 00:14:02;;;;;;;5.07;2.03;;;16.50;99.90;;;;;;5025765;28;20488;-84
2023/08/31 00:16:28;;;;;;;5.78;2.10;;;16.50;99.90;;;;;;5028879;28;20030;-84
2023/08/31 00:18:54;;;;;;;7.70;2.15;;;16.60;99.90;;;;;;5030820;28;20034;-84
2023/08/31 00:21:21;;;;;;;6.10;2.10;;;16.60;99.90;;;;;;5032254;28;20036;-83
2023/08/31 00:23:48;;;;;;;5.65;2.20;;;16.60;99.90;;;;;;5015732;28;20100;-84
2023/08/31 00:26:14;;;;;;;6.53;2.20;;;16.60;99.90;;;;;;5030817;28;20037;-85
2023/08/31 00:28:42;;;;;;;5.97;2.22;;;16.60;99.90;;;;;;5032182;28;20029;-85
2023/08/31 00:31:08;;;;;;;5.18;2.20;;;16.70;99.90;;;;;;5031857;28;20503;-85
2023/08/31 00:33:34;;;;;;;6.20;2.42;;;16.60;99.90;;;;;;5032062;28;20021;-84
2023/08/31 00:36:03;;;;;;;11.57;2.70;;;16.60;99.90;;;;;;5030359;28;20044;-83
2023/08/31 00:38:29;;;;;;;9.02;2.53;;;16.60;99.90;;;;;;5031900;28;20025;-83
2023/08/31 00:40:55;;;;;;;7.03;2.30;;;16.60;99.90;;;;;;5031595;28;20033;-86
2023/08/31 00:43:21;;;;;;;8.80;2.55;;;16.60;99.90;;;;;;5031159;28;20079;-84
2023/08/31 00:45:50;;;;;;;4.95;2.10;;;16.60;99.90;;;;;;5025229;28;20048;-85
2023/08/31 00:48:17;;;;;;;6.05;2.92;;;16.50;99.90;;;;;;5026489;28;20029;-85
2023/08/31 00:50:46;;;;;;;8.32;2.53;;;16.50;99.90;;;;;;5011884;28;20046;-84
2023/08/31 00:53:12;;;;;;;7.13;2.30;;;16.40;99.90;;;;;;5013065;28;20482;-84
2023/08/31 00:55:41;;;;;;;9.23;3.00;;;16.30;99.90;;;;;;5024221;28;20485;-83
2023/08/31 00:58:08;;;;;;;5.20;2.30;;;16.30;99.90;;;;;;5016530;28;20026;-84
2023/08/31 01:00:46;;;;;;;8.07;2.58;;;16.30;99.90;;;;;;5013741;28;20099;-85
2023/08/31 01:03:23;;;;;;;7.15;2.20;;;16.30;99.90;;;;;;5031754;28;20053;-84
2023/08/31 01:05:54;;;;;;;5.15;2.40;;;16.30;99.90;;;;;;5025580;28;20030;-85
2023/08/31 01:08:40;;;;;;;7.35;2.85;;;16.40;99.90;;;;;;4999563;28;20037;-83
2023/08/31 01:11:27;;;;;;;5.10;2.53;;;16.40;99.90;;;;;;5020166;28;20550;-83
2023/08/31 01:14:03;;;;;;;8.57;2.60;;;16.50;99.90;;;;;;5013218;28;20036;-85
2023/08/31 01:16:32;;;;;;;11.07;2.83;;;16.50;99.90;;;;;;5028355;28;20405;-83
2023/08/31 01:19:01;;;;;;;11.43;2.95;;;16.50;99.90;;;;;;5031263;28;20033;-84
2023/08/31 01:21:38;;;;;;;8.82;2.25;;;16.50;99.90;;;;;;5028086;28;20025;-84
2023/08/31 01:24:05;;;;;;;6.05;2.50;;;16.60;99.90;;;;;;5011024;28;20392;-83
2023/08/31 01:26:32;;;;;;;7.82;2.70;;;16.60;99.90;;;;;;5018737;28;20401;-83
2023/08/31 01:28:59;;;;;;;6.53;2.42;;;16.50;99.90;;;;;;5010557;28;20018;-83
2023/08/31 01:31:25;;;;;;;8.13;2.50;;;16.60;99.90;;;;;;5011107;28;20084;-83
2023/08/31 01:33:51;;;;;;;10.00;3.10;;;16.60;99.90;;;;;;5011771;28;20149;-83
2023/08/31 01:36:36;;;;;;;5.20;2.38;;;16.70;99.90;;;;;;5014005;28;20030;-84
2023/08/31 01:39:12;;;;;;;11.20;2.63;;;16.70;99.90;;;;;;5002832;28;20425;-85
2023/08/31 01:41:43;;;;;;;7.32;2.35;;;16.70;99.90;;;;;;5030756;28;20104;-84
2023/08/31 01:44:12;;;;;;;8.57;2.40;;;16.70;99.90;;;;;;5011553;28;20496;-83
2023/08/31 01:46:38;;;;;;;10.50;2.70;;;16.70;99.90;;;;;;5029923;28;20575;-84
2023/08/31 01:49:05;;;;;;;8.55;2.53;;;16.70;99.90;;;;;;5031143;28;20030;-84
2023/08/31 01:51:30;;;;;;;6.57;2.33;;;16.70;99.90;;;;;;5028447;28;20074;-84
2023/08/31 01:53:58;;;;;;;7.95;2.40;;;16.70;99.90;;;;;;5030836;28;20101;-84
2023/08/31 01:56:23;;;;;;;5.70;2.85;;;16.70;99.90;;;;;;5023833;28;20022;-83
2023/08/31 01:58:49;;;;;;;7.90;2.35;;;16.70;99.90;;;;;;5011496;28;20079;-84
2023/08/31 02:01:15;;;;;;;10.55;2.72;;;16.70;99.90;;;;;;5011635;28;20036;-84
2023/08/31 02:03:41;;;;;;;7.20;2.38;;;16.80;99.90;;;;;;5010499;28;20028;-84
2023/08/31 02:06:07;;;;;;;4.07;2.40;;;16.80;99.90;;;;;;5004383;28;20030;-84
2023/08/31 02:08:32;;;;;;;11.57;2.90;;;16.80;99.90;;;;;;5010318;28;20058;-84
2023/08/31 02:10:58;;;;;;;6.28;2.65;;;16.80;99.90;;;;;;5024829;28;20518;-85
2023/08/31 02:13:24;;;;;;;11.32;2.60;;;16.70;99.90;;;;;;5011694;28;20033;-84
2023/08/31 02:15:53;;;;;;;9.30;2.90;;;16.80;99.90;;;;;;5029310;28;20560;-83
2023/08/31 02:18:19;;;;;;;7.60;2.60;;;16.80;99.90;;;;;;5030865;28;20619;-85
2023/08/31 02:20:45;;;;;;;5.25;2.05;;;16.80;99.90;;;;;;5031186;28;20485;-83
2023/08/31 02:23:11;;;;;;;9.60;2.50;;;16.80;99.90;;;;;;5002459;28;20029;-84
2023/08/31 02:25:37;;;;;;;6.63;2.35;;;16.80;99.90;;;;;;5018621;28;20121;-84
2023/08/31 02:28:03;;;;;;;5.85;2.45;;;16.80;99.90;;;;;;5010640;28;20121;-84
2023/08/31 02:30:29;;;;;;;8.90;3.00;;;16.80;99.90;;;;;;5010112;28;20025;-84
2023/08/31 02:32:55;;;;;;;6.68;2.67;;;16.80;99.90;;;;;;4996759;28;20057;-84
2023/08/31 02:35:21;;;;;;;4.45;2.35;;;16.80;99.90;;;;;;5011866;28;20115;-84
2023/08/31 02:37:46;;;;;;;8.38;2.53;;;16.80;99.90;;;;;;5027483;28;20105;-84
2023/08/31 02:40:12;;;;;;;8.75;2.95;;;16.90;99.90;;;;;;5029545;28;20381;-85
2023/08/31 02:42:37;;;;;;;6.88;2.42;;;16.80;99.90;;;;;;5029589;28;20029;-85
2023/08/31 02:45:04;;;;;;;5.95;2.22;;;16.80;99.90;;;;;;5028939;28;20025;-83
2023/08/31 02:47:29;;;;;;;11.38;2.97;;;16.90;99.90;;;;;;5027621;28;20044;-84
2023/08/31 02:49:56;;;;;;;9.27;2.50;;;16.90;99.90;;;;;;5011450;28;20025;-84
2023/08/31 02:52:22;;;;;;;11.23;2.80;;;16.80;99.90;;;;;;5016330;28;20477;-85
2023/08/31 02:54:47;;;;;;;5.40;2.40;;;16.80;99.90;;;;;;5027409;28;20084;-84
2023/08/31 02:57:15;;;;;;;6.95;2.75;;;16.80;99.90;;;;;;5021921;28;20075;-84
2023/08/31 02:59:42;;;;;;;7.20;2.50;;;16.80;99.90;;;;;;5026885;28;20083;-84
2023/08/31 03:02:08;;;;;;;4.25;2.25;;;16.80;99.90;;;;;;5017250;28;20079;-83
2023/08/31 03:04:33;;;;;;;8.48;2.47;;;16.80;99.90;;;;;;5015763;28;20029;-84
2023/08/31 03:06:59;;;;;;;11.07;2.75;;;16.80;99.90;;;;;;5016957;28;20041;-86
2023/08/31 03:09:25;;;;;;;8.00;2.95;;;16.80;99.90;;;;;;5022208;28;20031;-85
2023/08/31 03:11:50;;;;;;;9.85;2.65;;;16.80;99.90;;;;;;5026473;28;20390;-84
2023/08/31 03:14:16;;;;;;;11.77;2.83;;;16.70;99.90;;;;;;5011073;28;20112;-86
2023/08/31 03:16:41;;;;;;;8.75;2.35;;;16.70;99.90;;;;;;5011470;28;20497;-87
2023/08/31 03:19:07;;;;;;;6.35;2.00;;;16.80;99.90;;;;;;5023122;28;20025;-86
2023/08/31 03:21:32;;;;;;;8.63;2.40;;;16.80;99.90;;;;;;5013903;28;20029;-83
2023/08/31 03:23:58;;;;;;;8.93;2.55;;;16.80;99.90;;;;;;5021143;28;20036;-83
2023/08/31 03:26:24;;;;;;;7.60;2.90;;;16.80;99.90;;;;;;5018696;28;20033;-83
2023/08/31 03:28:49;;;;;;;6.60;2.22;;;16.90;99.90;;;;;;5020613;28;20022;-84
2023/08/31 03:31:15;;;;;;;5.63;2.45;;;16.90;99.90;;;;;;5007697;28;20033;-83
2023/08/31 03:33:40;;;;;;;6.60;2.15;;;16.90;99.90;;;;;;5002160;28;20036;-83
2023/08/31 03:36:06;;;;;;;10.30;2.80;;;16.90;99.90;;;;;;5017621;28;20500;-84
2023/08/31 03:38:32;;;;;;;7.57;2.60;;;16.90;99.90;;;;;;5019715;28;20152;-84
2023/08/31 03:40:58;;;;;;;11.68;2.40;;;16.90;99.90;;;;;;5021646;28;20056;-84
2023/08/31 03:43:23;;;;;;;10.52;2.88;;;17.00;99.90;;;;;;5015220;28;20509;-85
2023/08/31 03:45:55;;;;;;;8.95;2.42;;;16.90;99.90;;;;;;5016597;28;20501;-84
2023/08/31 03:48:21;;;;;;;8.00;2.70;;;16.90;99.90;;;;;;5008890;28;20029;-83
2023/08/31 03:50:54;;;;;;;8.65;2.63;;;16.90;99.90;;;;;;5028837;28;20378;-82
2023/08/31 03:53:20;;;;;;;7.82;2.50;;;17.00;99.90;;;;;;5029519;28;20397;-82
2023/08/31 03:55:45;;;;;;;10.48;2.60;;;16.90;99.90;;;;;;5011424;28;20033;-84
2023/08/31 03:58:11;;;;;;;12.35;2.63;;;16.90;99.90;;;;;;5029158;28;20283;-85
2023/08/31 04:00:37;;;;;;;12.85;2.83;;;16.90;99.90;;;;;;5029023;28;20388;-84
2023/08/31 04:03:04;;;;;;;9.35;2.75;;;16.90;99.90;;;;;;5028674;28;20095;-82
2023/08/31 04:05:33;;;;;;;10.55;2.55;;;16.90;99.90;;;;;;5001798;28;20042;-82
2023/08/31 04:08:00;;;;;;;6.68;2.28;;;16.90;99.90;;;;;;5023116;28;20032;-81
2023/08/31 04:10:26;;;;;;;9.23;2.50;;;16.90;99.90;;;;;;5020748;28;20057;-82
2023/08/31 04:12:52;;;;;;;7.25;2.53;;;16.90;99.90;;;;;;5024001;28;20028;-82
2023/08/31 04:15:17;;;;;;;12.27;2.70;;;16.80;99.90;;;;;;5009850;28;20033;-83
2023/08/31 04:17:43;;;;;;;7.65;2.60;;;16.90;99.90;;;;;;5011303;28;20056;-84
2023/08/31 04:20:10;;;;;;;8.43;2.30;;;16.90;99.90;;;;;;5028001;28;20033;-82
2023/08/31 04:22:35;;;;;;;10.18;2.80;;;16.90;99.90;;;;;;5028636;28;20029;-83
2023/08/31 04:25:01;;;;;;;8.32;2.47;;;16.90;99.90;;;;;;5028670;28;20026;-82
2023/08/31 04:27:27;;;;;;;10.13;2.85;;;16.90;99.90;;;;;;5025746;28;20029;-83
2023/08/31 04:29:53;;;;;;;8.35;2.50;;;16.90;99.90;;;;;;5026884;28;20530;-83
2023/08/31 04:32:19;;;;;;;6.82;2.63;;;16.90;99.90;;;;;;5029582;28;20497;-82
2023/08/31 04:34:44;;;;;;;8.18;2.63;;;16.90;99.90;;;;;;5024641;28;20052;-82
2023/08/31 04:37:10;;;;;;;8.80;2.30;;;16.90;99.90;;;;;;5021984;28;20056;-83
2023/08/31 04:39:36;;;;;;;10.45;2.70;;;16.90;99.90;;;;;;5019353;28;20547;-82
2023/08/31 04:42:02;;;;;;;10.63;2.45;;;16.90;99.90;;;;;;5011846;28;20088;-83
2023/08/31 04:44:28;;;;;;;10.40;2.67;;;16.90;99.90;;;;;;5021346;28;20433;-82
2023/08/31 04:46:54;;;;;;;8.00;2.40;;;17.00;99.90;;;;;;5023794;28;20065;-84
2023/08/31 04:49:20;;;;;;;11.10;2.65;;;17.00;99.90;;;;;;5041124;28;20451;-85
2023/08/31 04:51:46;;;;;;;10.75;2.63;;;17.00;99.90;;;;;;5027644;28;20036;-84
2023/08/31 04:54:11;;;;;;;9.18;2.92;;;17.00;99.90;;;;;;5028586;28;20022;-84
2023/08/31 04:56:37;;;;;;;9.68;2.47;;;17.00;99.90;;;;;;5019414;28;20024;-83
2023/08/31 04:59:03;;;;;;;7.95;2.60;;;17.00;99.90;;;;;;5028257;28;20048;-83
2023/08/31 05:01:28;;;;;;;7.97;2.15;;;17.00;99.90;;;;;;5027455;28;20026;-83
2023/08/31 05:03:54;;;;;;;13.10;2.67;;;17.10;99.90;;;;;;5030257;28;20040;-84
2023/08/31 05:06:20;;;;;;;9.48;2.40;;;17.10;99.90;;;;;;5003272;28;20041;-83
2023/08/31 05:08:47;;;;;;;8.63;2.45;;;17.10;99.90;;;;;;5031713;28;20412;-83
2023/08/31 05:11:13;;;;;;;7.07;2.60;;;17.10;99.90;;;;;;5030647;28;20478;-83
2023/08/31 05:13:41;;;;;;;12.20;2.95;;;17.00;99.90;;;;;;5031900;28;20322;-83
2023/08/31 05:16:08;;;;;;;7.68;2.40;;;17.10;99.90;;;;;;5014256;28;20477;-84
2023/08/31 05:18:33;;;;;;;7.95;2.60;;;17.10;99.90;;;;;;5028977;28;20055;-83
2023/08/31 05:20:59;;;;;;;6.53;2.15;;;17.00;99.90;;;;;;5017294;28;20065;-83
2023/08/31 05:23:24;;;;;;;7.47;2.58;;;17.00;99.90;;;;;;5032232;28;20064;-83
2023/08/31 05:25:50;;;;;;;9.27;2.60;;;17.00;99.90;;;;;;5031724;28;20061;-83
2023/08/31 05:28:16;;;;;;;9.90;2.83;;;17.00;99.90;;;;;;5027815;28;20025;-82
2023/08/31 05:30:51;;;;;;;8.55;2.05;;;17.10;99.90;;;;;;5013470;28;20048;-83
2023/08/31 05:33:18;;;;;;;9.55;2.97;;;17.10;99.90;;;;;;5034141;28;20039;-83
2023/08/31 05:35:44;;;;;;;6.40;2.28;;;17.10;99.90;;;;;;5034668;28;20051;-83
2023/08/31 05:38:09;;;;;;;12.20;2.70;;;17.10;99.90;;;;;;5013413;28;20436;-83
2023/08/31 05:40:35;;;;;;;10.50;2.90;;;17.10;99.90;;;;;;5029688;28;20086;-84
2023/08/31 05:43:03;;;;;;;8.60;2.60;;;17.10;99.90;;;;;;5031472;28;20037;-83
2023/08/31 05:45:34;;;;;;;8.67;2.40;;;17.10;99.90;;;;;;5031105;28;20013;-83
2023/08/31 05:48:00;;;;;;;8.95;3.00;;;17.10;99.90;;;;;;5017596;28;20034;-82
2023/08/31 05:50:27;;;;;;;9.98;2.50;;;17.10;99.90;;;;;;5024381;28;20034;-82
2023/08/31 05:52:53;;;;;;;7.22;2.47;;;16.90;99.90;;;;;;5029478;28;20025;-82
2023/08/31 05:55:19;;;;;;;9.38;2.50;;;17.00;99.90;;;;;;5029188;28;20036;-83
2023/08/31 05:57:44;;;;;;;7.35;2.72;;;17.10;99.90;;;;;;5012704;28;20025;-81
2023/08/31 06:00:11;;;;;;;12.80;2.85;;;17.10;99.90;;;;;;5028188;28;20104;-84
2023/08/31 06:02:36;;;;;;;3.35;2.13;;;17.10;99.90;;;;;;5009419;28;20524;-81
2023/08/31 06:05:04;;;;;;;9.00;2.80;;;17.20;99.90;;;;;;5025421;28;20022;-82
2023/08/31 06:07:29;;;;;;;11.60;2.60;;;17.20;99.90;;;;;;5026316;28;20617;-82
2023/08/31 06:09:56;;;;;;;10.18;2.40;;;17.20;99.90;;;;;;5030543;28;20105;-82
2023/08/31 06:12:22;;;;;;;8.88;2.80;;;17.20;99.90;;;;;;5029628;28;20092;-83
2023/08/31 06:14:47;;;;;;;6.60;2.78;;;17.20;99.90;;;;;;5029650;28;20033;-83
2023/08/31 06:17:13;;;;;;;5.10;2.13;;;17.30;99.90;;;;;;5029811;28;20040;-82
2023/08/31 06:19:40;;;;;;;7.45;3.17;;;17.30;99.90;;;;;;5029036;28;20036;-83
2023/08/31 06:22:05;;;;;;;10.90;3.45;;;17.30;99.90;;;;;;5026981;28;20021;-82
2023/08/31 06:24:32;;;;;;;4.20;2.00;;;17.30;99.90;;;;;;5025320;28;20053;-84
2023/08/31 06:26:58;;;;;;;7.18;2.60;;;17.30;99.90;;;;;;5025772;28;20519;-81
2023/08/31 06:29:23;;;;;;;8.68;2.50;;;17.40;99.90;;;;;;5018713;28;20022;-83
2023/08/31 06:31:49;;;;;;;10.10;2.67;;;17.40;99.90;;;;;;5019934;28;20113;-82
2023/08/31 06:34:15;;;;;;;11.27;3.17;;;17.40;99.90;;;;;;5025517;28;20047;-83
2023/08/31 06:36:40;;;;;;;10.05;2.92;;;17.40;99.90;;;;;;5008314;28;20022;-82
2023/08/31 06:39:06;;;;;;;15.68;3.30;;;17.40;99.90;;;;;;5009814;28;20083;-82
2023/08/31 06:41:32;;;;;;;5.78;2.55;;;17.50;99.90;;;;;;5010856;28;20033;-83
2023/08/31 06:43:58;;;;;;;10.52;3.67;;;17.40;99.90;;;;;;5018150;28;20132;-83
2023/08/31 06:46:24;;;;;;;8.70;2.50;;;17.50;99.90;;;;;;5014848;28;20033;-83
2023/08/31 06:48:49;;;;;;;10.85;2.50;;;17.50;99.90;;;;;;5029443;28;20040;-82
2023/08/31 06:51:15;;;;;;;5.65;2.42;;;17.50;99.90;;;;;;5010118;28;20041;-84
2023/08/31 06:53:43;;;;;;;7.15;2.53;;;17.60;99.90;;;;;;5009539;28;20500;-82
2023/08/31 06:56:09;;;;;;;9.40;2.60;;;17.60;99.90;;;;;;5018947;28;20032;-82
2023/08/31 06:58:34;;;;;;;9.50;3.00;;;17.60;99.90;;;;;;5028902;28;20120;-82
2023/08/31 07:01:00;;;;;;;7.28;2.45;;;17.60;99.90;;;;;;5028736;28;20022;-82
2023/08/31 07:03:26;;;;;;;6.47;2.45;;;17.70;99.90;;;;;;5030453;28;20057;-82
2023/08/31 07:05:52;;;;;;;9.35;3.00;;;17.60;99.90;;;;;;5028546;28;20183;-82
2023/08/31 07:08:18;;;;;;;7.70;2.65;;;17.70;99.90;;;;;;5028629;28;20025;-83
2023/08/31 07:10:43;;;;;;;9.20;2.60;;;17.70;99.90;;;;;;5027922;28;20018;-83
2023/08/31 07:13:09;;;;;;;7.18;2.50;;;17.70;99.90;;;;;;5027095;28;20025;-83
2023/08/31 07:15:35;;;;;;;7.93;2.40;;;17.70;99.90;;;;;;5021858;28;20026;-83
2023/08/31 07:18:01;;;;;;;5.68;2.13;;;17.80;99.90;;;;;;5009233;28;20034;-83
2023/08/31 07:20:26;;;;;;;6.13;2.20;;;17.70;99.90;;;;;;5027380;28;20037;-84
2023/08/31 07:22:52;;;;;;;7.70;2.30;;;17.80;99.90;;;;;;5009772;28;20031;-82
2023/08/31 07:25:18;;;;;;;5.47;2.22;;;17.80;99.90;;;;;;5027700;28;20061;-82
2023/08/31 07:27:43;;;;;;;5.90;2.13;;;17.80;99.90;;;;;;5029054;28;20120;-83
2023/08/31 07:30:10;;;;;;;6.53;2.38;;;17.90;99.90;;;;;;5011178;28;20537;-83
2023/08/31 07:32:35;;;;;;;4.30;2.03;;;17.90;99.90;;;;;;5017365;28;20036;-83
2023/08/31 07:35:03;;;;;;;6.45;2.15;;;17.90;99.90;;;;;;5009458;28;20022;-83
2023/08/31 07:37:28;;;;;;;6.15;2.22;;;18.00;99.90;;;;;;4995008;28;20379;-83
2023/08/31 07:39:54;;;;;;;4.68;1.95;;;17.90;99.90;;;;;;5007853;28;20033;-82
2023/08/31 07:42:19;;;;;;;5.07;2.30;;;18.00;99.90;;;;;;5009309;28;20490;-82
2023/08/31 07:44:45;;;;;;;4.50;2.15;;;17.90;99.90;;;;;;5009015;28;20057;-83
2023/08/31 07:47:11;;;;;;;4.25;2.17;;;17.90;99.90;;;;;;5022227;28;20059;-82
2023/08/31 07:49:36;;;;;;;6.50;2.33;;;18.00;99.90;;;;;;5010498;28;20033;-82
2023/08/31 07:52:03;;;;;;;6.15;2.42;;;18.10;99.90;;;;;;5024136;28;20578;-83
2023/08/31 07:54:28;;;;;;;4.80;2.40;;;18.10;99.90;;;;;;5018928;28;20201;-83
2023/08/31 07:56:54;;;;;;;6.60;2.53;;;18.20;99.90;;;;;;5023083;28;20116;-83
2023/08/31 07:59:20;;;;;;;5.45;2.10;;;18.20;99.90;;;;;;5020183;28;20029;-84
2023/08/31 08:01:46;;;;;;;4.40;2.47;;;18.30;99.90;;;;;;5024097;28;20052;-83
2023/08/31 08:04:12;;;;;;;6.95;2.50;;;18.30;99.90;;;;;;5012845;28;20022;-84
2023/08/31 08:06:37;;;;;;;5.30;2.33;;;18.30;99.90;;;;;;5025369;28;20037;-84
2023/08/31 08:09:04;;;;;;;4.03;2.78;;;18.30;99.90;;;;;;5018425;28;20037;-83
2023/08/31 08:11:30;;;;;;;6.45;2.45;;;18.40;99.90;;;;;;5027376;28;20029;-83
2023/08/31 08:13:56;;;;;;;4.55;2.75;;;18.40;99.90;;;;;;5012428;28;20026;-83
2023/08/31 08:16:22;;;;;;;4.72;2.92;;;18.50;99.90;;;;;;5018915;28;20394;-84
2023/08/31 08:18:47;;;;;;;3.80;2.55;;;18.60;99.90;;;;;;5018193;28;20030;-84
2023/08/31 08:21:13;;;;;;;5.18;2.70;;;18.60;99.90;;;;;;5015180;28;20037;-83
2023/08/31 08:23:38;;;;;;;4.18;3.25;;;18.60;99.90;;;;;;5017281;28;20025;-84
2023/08/31 08:26:04;;;;;;;4.53;2.90;;;18.60;99.90;;;;;;5025866;28;20037;-83
2023/08/31 08:28:29;;;;;;;4.25;2.67;;;18.70;99.90;;;;;;5024381;28;20025;-83
2023/08/31 08:30:55;;;;;;;3.00;2.70;;;18.80;99.90;;;;;;5014370;28;20038;-83
2023/08/31 08:33:21;;;;;;;3.58;2.72;;;18.80;99.90;;;;;;5016394;28;20049;-84
2023/08/31 08:35:47;;;;;;;3.42;2.80;;;18.90;99.90;;;;;;5014229;28;20033;-83
2023/08/31 08:38:12;;;;;;;4.47;3.08;;;18.80;99.90;;;;;;4996549;28;20088;-83
2023/08/31 08:40:38;;;;;;;4.78;2.85;;;18.90;99.90;;;;;;5021915;28;20515;-82
2023/08/31 08:43:07;;;;;;;3.40;2.50;;;19.00;99.90;;;;;;5026021;28;20025;-85
2023/08/31 08:45:42;;;;;;;3.55;2.42;;;19.10;99.90;;;;;;5017456;28;20030;-83
2023/08/31 08:48:08;;;;;;;3.97;2.55;;;19.10;99.90;;;;;;5027671;28;20037;-83
2023/08/31 08:50:35;;;;;;;3.33;2.40;;;19.10;99.90;;;;;;5014190;28;20022;-83
2023/08/31 08:53:05;;;;;;;5.80;2.60;;;19.10;99.90;;;;;;5026776;28;20508;-83
2023/08/31 08:55:31;;;;;;;3.92;2.35;;;19.20;99.90;;;;;;5031421;28;20022;-83
2023/08/31 08:57:59;;;;;;;2.60;2.13;;;19.30;99.90;;;;;;5021897;28;20041;-83
2023/08/31 09:00:27;;;;;;;3.65;2.40;;;19.40;99.90;;;;;;5017965;28;20109;-84
2023/08/31 09:02:53;;;;;;;5.13;2.60;;;19.50;99.90;;;;;;5027129;28;20148;-84
2023/08/31 09:05:19;;;;;;;3.10;2.20;;;19.50;99.90;;;;;;5021282;28;20083;-83
2023/08/31 09:08:03;;;;;;;4.63;2.20;;;19.60;99.90;;;;;;5010153;28;20038;-83
2023/08/31 09:10:43;;;;;;;3.67;2.17;;;19.60;99.90;;;;;;5018557;28;20018;-83
2023/08/31 09:13:11;;;;;;;3.42;2.20;;;19.80;99.90;;;;;;5000768;28;20034;-83
2023/08/31 09:15:41;;;;;;;;;;;19.70;99.90;;;;;;5026191;28;20037;-83
2023/08/31 09:18:08;;;;;;;2.55;2.20;;;19.70;99.90;;;;;;5021195;28;19913;-84
2023/08/31 09:20:49;;;;;;;2.53;1.83;;;19.70;99.90;;;;;;5028676;28;20025;-83
2023/08/31 09:23:16;;;;;;;2.70;2.10;;;19.90;99.90;;;;;;5028615;28;20032;-83
2023/08/31 09:25:46;;;;;;;2.25;2.00;;;19.70;99.90;;;;;;5030643;28;20029;-84
2023/08/31 09:28:12;;;;;;;2.88;2.10;;;19.90;99.90;;;;;;5030983;28;20152;-83
2023/08/31 09:30:40;;;;;;;4.55;2.08;;;20.00;99.90;;;;;;4997707;28;20125;-84
2023/08/31 09:33:07;;;;;;;1.90;1.80;;;19.90;99.90;;;;;;5025435;28;20029;-84
2023/08/31 09:35:38;;;;;;;1.80;1.70;;;20.00;99.90;;;;;;5029033;28;20108;-84
2023/08/31 09:38:07;;;;;;;2.30;1.98;;;20.00;99.90;;;;;;5013163;28;20022;-82
2023/08/31 09:40:33;;;;;;;2.15;1.70;;;20.00;99.90;;;;;;5018114;28;20124;-84
2023/08/31 09:42:58;;;;;;;2.30;1.85;;;20.00;99.90;;;;;;5019923;28;20093;-83
2023/08/31 09:45:31;;;;;;;2.00;1.80;;;20.00;99.90;;;;;;5029816;28;20316;-85
2023/08/31 09:48:01;;;;;;;1.60;1.50;;;20.10;99.90;;;;;;5006469;28;20128;-83
2023/08/31 09:50:33;;;;;;;2.08;1.40;;;20.20;99.90;;;;;;5010695;28;20117;-85
2023/08/31 09:53:03;;;;;;;4.05;1.70;;;20.20;99.90;;;;;;5018011;28;20493;-85
2023/08/31 09:55:30;;;;;;;1.98;1.88;;;20.20;99.90;;;;;;5030753;28;20021;-84
2023/08/31 09:58:04;;;;;;;2.00;1.90;;;20.20;99.90;;;;;;5028899;28;20065;-84
2023/08/31 10:00:31;;;;;;;1.95;1.80;;;20.30;99.90;;;;;;5025166;28;20058;-84
2023/08/31 10:03:00;;;;;;;2.17;2.03;;;20.30;99.90;;;;;;5024580;28;20029;-83
2023/08/31 10:05:25;;;;;;;2.40;2.20;;;20.30;99.90;;;;;;5022538;28;20262;-83
2023/08/31 10:07:51;;;;;;;2.22;1.90;;;20.30;99.90;;;;;;5018447;28;20033;-83
2023/08/31 10:10:17;;;;;;;2.13;1.90;;;20.30;99.90;;;;;;5017616;28;20024;-83
2023/08/31 10:12:46;;;;;;;2.20;2.00;;;20.40;99.90;;;;;;5018012;28;20033;-84
2023/08/31 10:15:12;;;;;;;;;;;20.40;99.90;;;;;;5020884;28;20018;-84
2023/08/31 10:17:39;;;;;;;4.30;2.40;;;20.40;99.90;;;;;;5001530;28;19959;-83
2023/08/31 10:20:07;;;;;;;2.40;2.20;;;20.30;99.90;;;;;;5025344;28;20116;-83
2023/08/31 10:22:33;;;;;;;2.30;2.10;;;20.30;99.90;;;;;;5020610;28;20113;-84
2023/08/31 10:25:01;;;;;;;2.40;2.20;;;20.40;99.90;;;;;;5021703;28;20112;-83
2023/08/31 10:27:27;;;;;;;2.25;2.13;;;20.40;99.90;;;;;;5018682;28;20325;-85
2023/08/31 10:29:53;;;;;;;2.20;2.00;;;20.50;99.90;;;;;;5022314;28;20029;-84
2023/08/31 10:32:19;;;;;;;4.47;2.50;;;20.60;99.90;;;;;;5008116;28;20072;-84
2023/08/31 10:35:04;;;;;;;2.28;2.00;;;20.60;99.90;;;;;;5020888;28;20026;-83
2023/08/31 10:37:30;;;;;;;2.17;1.90;;;20.70;99.90;;;;;;5020012;28;20037;-83
2023/08/31 10:40:11;;;;;;;1.85;1.70;;;20.70;99.90;;;;;;5025730;28;20079;-84
2023/08/31 10:43:07;;;;;;;1.92;1.60;;;20.80;99.90;;;;;;5025973;28;20105;-83
2023/08/31 10:45:44;;;;;;;2.50;1.70;;;20.90;99.90;;;;;;5030544;28;20026;-83
2023/08/31 10:48:10;;;;;;;1.70;1.40;;;21.10;99.90;;;;;;5006020;28;20017;-85
2023/08/31 10:50:41;;;;;;;2.78;1.40;;;21.10;99.90;;;;;;5008847;28;20091;-84
2023/08/31 10:53:12;;;;;;;2.90;1.60;;;21.20;99.90;;;;;;5030476;28;20477;-84
2023/08/31 10:55:52;;;;;;;2.78;1.30;;;21.30;99.90;;;;;;5030667;28;20056;-85
2023/08/31 10:58:18;;;;;;;1.30;1.20;;;21.40;99.90;;;;;;5029911;28;20436;-84
2023/08/31 11:00:55;;;;;;;1.30;1.23;;;21.50;99.90;;;;;;5029846;28;20026;-85
2023/08/31 11:03:21;;;;;;;5.33;1.37;;;21.50;99.90;;;;;;5029998;28;20032;-85
2023/08/31 11:05:53;;;;;;;1.40;1.30;;;21.50;99.90;;;;;;5030016;28;20037;-85
2023/08/31 11:08:26;;;;;;;2.13;1.42;;;21.50;99.90;;;;;;5029568;28;20029;-84
2023/08/31 11:10:52;;;;;;;1.80;1.48;;;21.60;99.90;;;;;;5029867;28;20025;-85
2023/08/31 11:13:22;;;;;;;1.60;1.30;;;21.50;99.90;;;;;;5029504;28;20393;-85
2023/08/31 11:15:49;;;;;;;1.67;1.58;;;21.50;99.90;;;;;;5029654;28;20021;-85
2023/08/31 11:18:17;;;;;;;1.40;1.30;;;21.50;99.90;;;;;;5011969;28;20072;-84
2023/08/31 11:20:44;;;;;;;2.30;1.20;;;21.50;99.90;;;;;;5027745;28;20071;-84
2023/08/31 11:23:10;;;;;;;2.08;1.48;;;21.50;99.90;;;;;;5027793;28;20500;-84
2023/08/31 11:25:35;;;;;;;2.60;1.00;;;21.60;99.90;;;;;;5030423;28;20025;-84
2023/08/31 11:28:09;;;;;;;3.40;1.40;;;21.70;99.90;;;;;;5028512;28;20044;-83
2023/08/31 11:30:36;;;;;;;1.17;1.08;;;21.70;99.90;;;;;;5010778;28;20030;-84
2023/08/31 11:33:06;;;;;;;1.30;1.17;;;21.80;99.90;;;;;;5024446;28;20032;-84
2023/08/31 11:35:37;;;;;;;1.70;1.30;;;21.70;99.90;;;;;;5007553;28;20036;-85
2023/08/31 11:38:04;;;;;;;2.00;1.45;;;21.80;99.90;;;;;;5007001;28;20120;-85
2023/08/31 11:40:30;;;;;;;3.33;1.40;;;21.80;99.90;;;;;;5029452;28;20025;-84
2023/08/31 11:42:57;;;;;;;1.90;1.20;;;21.80;99.90;;;;;;5027658;28;20026;-85
2023/08/31 11:45:23;;;;;;;1.20;1.10;;;21.80;99.90;;;;;;5009189;28;20021;-84
2023/08/31 11:47:50;;;;;;;2.03;0.95;;;21.80;99.90;;;;;;5014012;28;20029;-85
2023/08/31 11:50:16;;;;;;;1.10;1.00;;;21.80;99.90;;;;;;5010049;28;20404;-84
2023/08/31 11:52:42;;;;;;;1.02;0.90;;;21.80;99.90;;;;;;5028929;28;20481;-84
2023/08/31 11:55:13;;;;;;;1.33;1.00;;;21.70;99.90;;;;;;5027427;28;20025;-84
2023/08/31 11:57:38;;;;;;;0.93;0.80;;;21.70;99.90;;;;;;5005055;28;20029;-84
2023/08/31 12:00:05;;;;;;;1.30;1.00;;;21.70;99.90;;;;;;5028171;28;20029;-84
2023/08/31 12:02:37;;;;;;;2.78;1.10;;;21.70;99.90;;;;;;5027938;28;20711;-84
2023/08/31 12:05:05;;;;;;;2.00;1.20;;;21.70;99.90;;;;;;5027973;28;20563;-84
2023/08/31 12:07:31;;;;;;;1.52;1.00;;;21.70;99.90;;;;;;5017867;28;20121;-84
2023/08/31 12:10:05;;;;;;;1.52;1.00;;;21.70;99.90;;;;;;5009250;28;20506;-85
2023/08/31 12:12:32;;;;;;;2.33;0.98;;;21.80;99.90;;;;;;5012412;28;20497;-85
2023/08/31 12:15:03;;;;;;;1.20;1.00;;;21.80;99.90;;;;;;5027589;28;20100;-85
2023/08/31 12:17:29;;;;;;;1.05;1.00;;;21.90;99.90;;;;;;5027962;28;20242;-84
2023/08/31 12:20:04;;;;;;;2.00;1.00;;;21.90;99.90;;;;;;5028149;28;20029;-84
2023/08/31 12:22:30;;;;;;;1.40;1.10;;;22.10;99.90;;;;;;5024915;28;20393;-84
2023/08/31 12:24:56;;;;;;;4.72;2.63;;;22.20;99.90;;;;;;5012640;28;20029;-84
2023/08/31 12:27:21;;;;;;;1.00;0.90;;;22.30;99.90;;;;;;5026515;28;20045;-84
2023/08/31 12:29:47;;;;;;;1.30;1.20;;;22.30;99.90;;;;;;5010089;28;20029;-85
2023/08/31 12:32:13;;;;;;;1.08;0.90;;;22.40;99.90;;;;;;5011880;28;20037;-84
2023/08/31 12:34:39;;;;;;;1.23;1.13;;;22.40;99.90;;;;;;5010040;28;20022;-84
2023/08/31 12:37:04;;;;;;;1.73;1.05;;;22.50;99.90;;;;;;5022836;28;20556;-84
2023/08/31 12:39:32;;;;;;;3.78;1.10;;;22.70;99.90;;;;;;5016675;28;20444;-84
2023/08/31 12:41:57;;;;;;;3.63;1.13;;;22.80;99.90;;;;;;5010263;28;20033;-85
2023/08/31 12:44:25;;;;;;;3.90;1.10;;;22.90;99.90;;;;;;5028668;28;20347;-84
2023/08/31 12:46:51;;;;;;;4.88;1.00;;;23.10;99.90;;;;;;5027167;28;20041;-85